Time;durP1;ratioP1;P1;durP2;ratioP2;P2;SDS_P1;SDS_P2;PMS_P1;PMS_P2;Temp;Humidity;BMP_temperature;BMP_pressure;BME280_temperature;BME280_humidity;BME280_pressure;Samples;Min_cycle;Max_cycle;Signal;HPM_P1;HPM_P2
2023/07/13 00:00:42;;;;;;;;;;;;;;;;;;4979045;28;19922;-62
2023/07/13 00:03:09;;;;;;;;;;;;;;;;;;4987118;28;19928;-62
2023/07/13 00:05:36;;;;;;;;;;;;;;;;;;4983106;28;19922;-61
2023/07/13 00:08:03;;;;;;;;;;;;;;;;;;4981853;28;19969;-61
2023/07/13 00:10:30;;;;;;;;;;;;;;;;;;4983204;28;19928;-62
2023/07/13 00:12:57;;;;;;;;;;;;;;;;;;4983743;28;19921;-62
2023/07/13 00:15:23;;;;;;;;;;;;;;;;;;4981314;28;20403;-62
2023/07/13 00:17:50;;;;;;;;;;;;;;;;;;4984556;28;20324;-61
2023/07/13 00:20:17;;;;;;;;;;;;;;;;;;4984642;28;19926;-61
2023/07/13 00:22:44;;;;;;;;;;;;;;;;;;4981903;28;19969;-61
2023/07/13 00:25:11;;;;;;;;;;;;;;;;;;4978290;28;19945;-62
2023/07/13 00:27:38;;;;;;;;;;;;;;;;;;4983931;28;19921;-61
2023/07/13 00:30:05;;;;;;;;;;;;;;;;;;4981647;28;19929;-61
2023/07/13 00:32:32;;;;;;;;;;;;;;;;;;4986990;28;19925;-62
2023/07/13 00:35:00;;;;;;;;;;;;;;;;;;4982859;28;20379;-62
2023/07/13 00:37:27;;;;;;;;;;;;;;;;;;4983806;28;19922;-62
2023/07/13 00:39:54;;;;;;;;;;;;;;;;;;4973026;28;19968;-62
2023/07/13 00:42:21;;;;;;;;;;;;;;;;;;4980594;28;20017;-61
2023/07/13 00:44:48;;;;;;;;;;;;;;;;;;4983536;28;19922;-61
2023/07/13 00:47:15;;;;;;;;;;;;;;;;;;4982364;28;19968;-61
2023/07/13 00:49:41;;;;;;;;;;;;;;;;;;4981474;28;19922;-61
2023/07/13 00:52:08;;;;;;;;;;;;;;;;;;4981396;28;19977;-61
2023/07/13 00:54:35;;;;;;;;;;;;;;;;;;4983155;28;19949;-61
2023/07/13 00:57:02;;;;;;;;;;;;;;;;;;4980378;28;19922;-60
2023/07/13 00:59:29;;;;;;;;;;;;;;;;;;4980269;28;19921;-61
2023/07/13 01:01:56;;;;;;;;;;;;;;;;;;4982289;28;19926;-61
2023/07/13 01:04:23;;;;;;;;;;;;;;;;;;4984822;28;19922;-62
2023/07/13 01:06:50;;;;;;;;;;;;;;;;;;4981855;28;19922;-61
2023/07/13 01:09:17;;;;;;;;;;;;;;;;;;4984115;28;20303;-61
2023/07/13 01:11:44;;;;;;;;;;;;;;;;;;4982279;28;19929;-61
2023/07/13 01:14:11;;;;;;;;;;;;;;;;;;4985179;28;19921;-61
2023/07/13 01:16:38;;;;;;;;;;;;;;;;;;4981593;28;19976;-58
2023/07/13 01:19:05;;;;;;;;;;;;;;;;;;4985091;28;19930;-61
2023/07/13 01:21:32;;;;;;;;;;;;;;;;;;4986736;28;19922;-60
2023/07/13 01:23:59;;;;;;;;;;;;;;;;;;4985619;28;20334;-59
2023/07/13 01:26:26;;;;;;;;;;;;;;;;;;4983746;28;19996;-61
2023/07/13 01:28:52;;;;;;;;;;;;;;;;;;4988206;28;19922;-60
2023/07/13 01:31:19;;;;;;;;;;;;;;;;;;4983508;28;19984;-59
2023/07/13 01:33:46;;;;;;;;;;;;;;;;;;4989874;28;19925;-60
2023/07/13 01:36:14;;;;;;;;;;;;;;;;;;4985468;28;19922;-59
2023/07/13 01:38:41;;;;;;;;;;;;;;;;;;4986806;28;19926;-59
2023/07/13 01:41:08;;;;;;;;;;;;;;;;;;4984386;28;19926;-59
2023/07/13 01:43:35;;;;;;;;;;;;;;;;;;4988706;28;19951;-59
2023/07/13 01:46:02;;;;;;;;;;;;;;;;;;4983641;28;19925;-59
2023/07/13 01:48:29;;;;;;;;;;;;;;;;;;4985014;28;19922;-58
2023/07/13 01:50:56;;;;;;;;;;;;;;;;;;4986190;28;19980;-59
2023/07/13 01:53:23;;;;;;;;;;;;;;;;;;4984927;28;19922;-59
2023/07/13 01:55:50;;;;;;;;;;;;;;;;;;4984339;28;19923;-59
2023/07/13 01:58:16;;;;;;;;;;;;;;;;;;4978765;28;20375;-60
2023/07/13 02:00:43;;;;;;;;;;;;;;;;;;4983725;28;20343;-59
2023/07/13 02:03:10;;;;;;;;;;;;;;;;;;4991068;28;19930;-60
2023/07/13 02:05:37;;;;;;;;;;;;;;;;;;4984823;28;19985;-61
2023/07/13 02:08:04;;;;;;;;;;;;;;;;;;4984093;28;19976;-60
2023/07/13 02:10:31;;;;;;;;;;;;;;;;;;4975195;28;19973;-60
2023/07/13 02:12:58;;;;;;;;;;;;;;;;;;4985276;28;19972;-62
2023/07/13 02:15:24;;;;;;;;;;;;;;;;;;4983284;28;20379;-62
2023/07/13 02:17:52;;;;;;;;;;;;;;;;;;4985213;28;20291;-62
2023/07/13 02:20:19;;;;;;;;;;;;;;;;;;4985655;28;19929;-59
2023/07/13 02:22:46;;;;;;;;;;;;;;;;;;4980603;28;19929;-55
2023/07/13 02:25:14;;;;;;;;;;;;;;;;;;4984670;28;19930;-59
2023/07/13 02:27:40;;;;;;;;;;;;;;;;;;4982601;28;19961;-57
2023/07/13 02:30:07;;;;;;;;;;;;;;;;;;4987590;28;19968;-61
2023/07/13 02:32:35;;;;;;;;;;;;;;;;;;4989896;28;19922;-59
2023/07/13 02:35:02;;;;;;;;;;;;;;;;;;4985350;28;19965;-57
2023/07/13 02:37:29;;;;;;;;;;;;;;;;;;4985089;28;19921;-57
2023/07/13 02:39:56;;;;;;;;;;;;;;;;;;4982764;28;19926;-59
2023/07/13 02:42:23;;;;;;;;;;;;;;;;;;4984313;28;19925;-60
2023/07/13 02:44:50;;;;;;;;;;;;;;;;;;4985210;28;19921;-59
2023/07/13 02:47:18;;;;;;;;;;;;;;;;;;4986217;28;20006;-56
2023/07/13 02:49:44;;;;;;;;;;;;;;;;;;4983479;28;19992;-59
2023/07/13 02:52:11;;;;;;;;;;;;;;;;;;4984404;28;19929;-58
2023/07/13 02:54:38;;;;;;;;;;;;;;;;;;4984094;28;19949;-57
2023/07/13 02:57:05;;;;;;;;;;;;;;;;;;4982631;28;19921;-58
2023/07/13 02:59:32;;;;;;;;;;;;;;;;;;4984395;28;20429;-60
2023/07/13 03:01:59;;;;;;;;;;;;;;;;;;4985221;28;19922;-59
2023/07/13 03:04:26;;;;;;;;;;;;;;;;;;4982820;28;19984;-58
2023/07/13 03:06:52;;;;;;;;;;;;;;;;;;4983853;28;19922;-52
2023/07/13 03:09:19;;;;;;;;;;;;;;;;;;4984696;28;19926;-57
2023/07/13 03:11:46;;;;;;;;;;;;;;;;;;4983927;28;20021;-62
2023/07/13 03:14:13;;;;;;;;;;;;;;;;;;4983459;28;20287;-61
2023/07/13 03:16:40;;;;;;;;;;;;;;;;;;4979091;28;19922;-57
2023/07/13 03:19:07;;;;;;;;;;;;;;;;;;4985325;28;19922;-62
2023/07/13 03:21:34;;;;;;;;;;;;;;;;;;4984500;28;19973;-61
2023/07/13 03:24:00;;;;;;;;;;;;;;;;;;4992084;28;19925;-61
2023/07/13 03:26:27;;;;;;;;;;;;;;;;;;4982738;28;19969;-61
2023/07/13 03:28:54;;;;;;;;;;;;;;;;;;4984517;28;20618;-61
2023/07/13 03:31:21;;;;;;;;;;;;;;;;;;4981680;28;20691;-61
2023/07/13 03:33:48;;;;;;;;;;;;;;;;;;4985172;28;19933;-61
2023/07/13 03:36:16;;;;;;;;;;;;;;;;;;4983848;28;20366;-57
2023/07/13 03:38:42;;;;;;;;;;;;;;;;;;4983632;28;19928;-61
2023/07/13 03:41:09;;;;;;;;;;;;;;;;;;4988763;28;19929;-60
2023/07/13 03:43:36;;;;;;;;;;;;;;;;;;4984173;28;20065;-60
2023/07/13 03:46:03;;;;;;;;;;;;;;;;;;4985212;28;19922;-61
2023/07/13 03:48:30;;;;;;;;;;;;;;;;;;4983445;28;19976;-62
2023/07/13 03:50:57;;;;;;;;;;;;;;;;;;4988176;28;19930;-59
2023/07/13 03:53:24;;;;;;;;;;;;;;;;;;4980375;28;19969;-62
2023/07/13 03:55:51;;;;;;;;;;;;;;;;;;4988897;28;19926;-62
2023/07/13 03:58:18;;;;;;;;;;;;;;;;;;4986483;28;19933;-64
2023/07/13 04:00:44;;;;;;;;;;;;;;;;;;4979278;28;19921;-64
2023/07/13 04:03:11;;;;;;;;;;;;;;;;;;4988081;28;19921;-64
2023/07/13 04:05:40;;;;;;;;;;;;;;;;;;4984934;28;19922;-62
2023/07/13 04:08:07;;;;;;;;;;;;;;;;;;4979448;28;19929;-60
2023/07/13 04:10:34;;;;;;;;;;;;;;;;;;4981080;28;19922;-60
2023/07/13 04:13:01;;;;;;;;;;;;;;;;;;4982169;28;19976;-60
2023/07/13 04:15:27;;;;;;;;;;;;;;;;;;4983612;28;19925;-64
2023/07/13 04:17:54;;;;;;;;;;;;;;;;;;4981312;28;19929;-64
2023/07/13 04:20:21;;;;;;;;;;;;;;;;;;4984164;28;19933;-64
2023/07/13 04:22:48;;;;;;;;;;;;;;;;;;4978898;28;19997;-63
2023/07/13 04:25:15;;;;;;;;;;;;;;;;;;4980491;28;19925;-64
2023/07/13 04:27:42;;;;;;;;;;;;;;;;;;4984017;28;19976;-64
2023/07/13 04:30:09;;;;;;;;;;;;;;;;;;4984842;28;19933;-66
2023/07/13 04:32:36;;;;;;;;;;;;;;;;;;4988965;28;19977;-66
2023/07/13 04:35:03;;;;;;;;;;;;;;;;;;4987746;28;19928;-66
2023/07/13 04:37:30;;;;;;;;;;;;;;;;;;4982854;28;20405;-66
2023/07/13 04:39:57;;;;;;;;;;;;;;;;;;4984607;28;20016;-67
2023/07/13 04:42:23;;;;;;;;;;;;;;;;;;4982117;28;20375;-66
2023/07/13 04:44:50;;;;;;;;;;;;;;;;;;4981851;28;20339;-66
2023/07/13 04:47:17;;;;;;;;;;;;;;;;;;4983790;28;19984;-66
2023/07/13 04:49:44;;;;;;;;;;;;;;;;;;4980403;28;19922;-64
2023/07/13 04:52:11;;;;;;;;;;;;;;;;;;4985288;28;19925;-62
2023/07/13 04:54:38;;;;;;;;;;;;;;;;;;4987598;28;20400;-62
2023/07/13 04:57:06;;;;;;;;;;;;;;;;;;4984060;28;19922;-62
2023/07/13 04:59:33;;;;;;;;;;;;;;;;;;4986232;28;20025;-62
2023/07/13 05:02:01;;;;;;;;;;;;;;;;;;4988602;28;19925;-62
2023/07/13 05:04:28;;;;;;;;;;;;;;;;;;4986001;28;19925;-62
2023/07/13 05:06:55;;;;;;;;;;;;;;;;;;4986010;28;20012;-62
2023/07/13 05:09:21;;;;;;;;;;;;;;;;;;4984570;28;20437;-62
2023/07/13 05:11:48;;;;;;;;;;;;;;;;;;4985116;28;19944;-62
2023/07/13 05:14:16;;;;;;;;;;;;;;;;;;4985311;28;19926;-62
2023/07/13 05:16:43;;;;;;;;;;;;;;;;;;4986783;28;19922;-62
2023/07/13 05:19:10;;;;;;;;;;;;;;;;;;4985779;28;19976;-62
2023/07/13 05:21:36;;;;;;;;;;;;;;;;;;4984472;28;19925;-62
2023/07/13 05:24:03;;;;;;;;;;;;;;;;;;4985636;28;20387;-62
2023/07/13 05:26:30;;;;;;;;;;;;;;;;;;4989575;28;19941;-62
2023/07/13 05:28:57;;;;;;;;;;;;;;;;;;4987294;28;19925;-62
2023/07/13 05:31:24;;;;;;;;;;;;;;;;;;4985437;28;20041;-62
2023/07/13 05:33:51;;;;;;;;;;;;;;;;;;4988213;28;19929;-62
2023/07/13 05:36:18;;;;;;;;;;;;;;;;;;4984766;28;19926;-62
2023/07/13 05:38:45;;;;;;;;;;;;;;;;;;4988320;28;20012;-62
2023/07/13 05:41:12;;;;;;;;;;;;;;;;;;4984077;28;19926;-62
2023/07/13 05:43:38;;;;;;;;;;;;;;;;;;4985724;28;19922;-62
2023/07/13 05:46:05;;;;;;;;;;;;;;;;;;4986204;28;19926;-62
2023/07/13 05:48:32;;;;;;;;;;;;;;;;;;4984857;28;19968;-62
2023/07/13 05:50:59;;;;;;;;;;;;;;;;;;4984544;28;20040;-62
2023/07/13 05:53:26;;;;;;;;;;;;;;;;;;4986626;28;19921;-62
2023/07/13 05:55:53;;;;;;;;;;;;;;;;;;4985365;28;19926;-62
2023/07/13 05:58:20;;;;;;;;;;;;;;;;;;4984017;28;19922;-62
2023/07/13 06:00:47;;;;;;;;;;;;;;;;;;4984648;28;20012;-62
2023/07/13 06:03:14;;;;;;;;;;;;;;;;;;4987677;28;19921;-62
2023/07/13 06:05:41;;;;;;;;;;;;;;;;;;4984074;28;19980;-61
2023/07/13 06:08:07;;;;;;;;;;;;;;;;;;4985098;28;19926;-62
2023/07/13 06:10:34;;;;;;;;;;;;;;;;;;4986179;28;19921;-62
2023/07/13 06:13:01;;;;;;;;;;;;;;;;;;4984390;28;19925;-62
2023/07/13 06:15:28;;;;;;;;;;;;;;;;;;4984275;28;19977;-62
2023/07/13 06:17:55;;;;;;;;;;;;;;;;;;4986114;28;19925;-62
2023/07/13 06:20:22;;;;;;;;;;;;;;;;;;4984711;28;19977;-62
2023/07/13 06:22:49;;;;;;;;;;;;;;;;;;4983630;28;19926;-62
2023/07/13 06:25:16;;;;;;;;;;;;;;;;;;4985184;28;19921;-62
2023/07/13 06:27:43;;;;;;;;;;;;;;;;;;4985158;28;19933;-62
2023/07/13 06:30:10;;;;;;;;;;;;;;;;;;4982179;28;20004;-62
2023/07/13 06:32:37;;;;;;;;;;;;;;;;;;4987169;28;19997;-62
2023/07/13 06:35:04;;;;;;;;;;;;;;;;;;4986444;28;19922;-62
2023/07/13 06:37:30;;;;;;;;;;;;;;;;;;4984238;28;20005;-62
2023/07/13 06:39:57;;;;;;;;;;;;;;;;;;4983063;28;19922;-62
2023/07/13 06:42:24;;;;;;;;;;;;;;;;;;4974937;28;19984;-62
2023/07/13 06:44:51;;;;;;;;;;;;;;;;;;4974545;28;19938;-62
2023/07/13 06:47:18;;;;;;;;;;;;;;;;;;4974436;28;20398;-63
2023/07/13 06:49:45;;;;;;;;;;;;;;;;;;4974768;28;20288;-62
2023/07/13 06:52:12;;;;;;;;;;;;;;;;;;4974695;28;19922;-62
2023/07/13 06:54:38;;;;;;;;;;;;;;;;;;4980317;28;19969;-62
2023/07/13 06:57:05;;;;;;;;;;;;;;;;;;4985167;28;19930;-62
2023/07/13 06:59:32;;;;;;;;;;;;;;;;;;4986071;28;19925;-62
2023/07/13 07:01:59;;;;;;;;;;;;;;;;;;4989691;28;19976;-62
2023/07/13 07:04:26;;;;;;;;;;;;;;;;;;4989285;28;19922;-62
2023/07/13 07:06:53;;;;;;;;;;;;;;;;;;4974993;28;19926;-62
2023/07/13 07:09:20;;;;;;;;;;;;;;;;;;4974545;28;20437;-62
2023/07/13 07:11:46;;;;;;;;;;;;;;;;;;4974035;28;20352;-62
2023/07/13 07:14:13;;;;;;;;;;;;;;;;;;4973748;28;19985;-62
2023/07/13 07:16:40;;;;;;;;;;;;;;;;;;4973989;28;19922;-62
2023/07/13 07:19:07;;;;;;;;;;;;;;;;;;4985531;28;19979;-62
2023/07/13 07:21:34;;;;;;;;;;;;;;;;;;4983896;28;19925;-62
2023/07/13 07:24:02;;;;;;;;;;;;;;;;;;4982202;28;20002;-62
2023/07/13 07:26:29;;;;;;;;;;;;;;;;;;4983677;28;19968;-62
2023/07/13 07:28:56;;;;;;;;;;;;;;;;;;4984551;28;19948;-62
2023/07/13 07:31:23;;;;;;;;;;;;;;;;;;4982941;28;19968;-62
2023/07/13 07:33:50;;;;;;;;;;;;;;;;;;4986302;28;19922;-62
2023/07/13 07:36:17;;;;;;;;;;;;;;;;;;4981999;28;19930;-62
2023/07/13 07:38:44;;;;;;;;;;;;;;;;;;4983337;28;20409;-62
2023/07/13 07:41:11;;;;;;;;;;;;;;;;;;4984370;28;20347;-62
2023/07/13 07:43:38;;;;;;;;;;;;;;;;;;4982585;28;19925;-62
2023/07/13 07:46:05;;;;;;;;;;;;;;;;;;4982655;28;19922;-62
2023/07/13 07:48:31;;;;;;;;;;;;;;;;;;4984099;28;20382;-62
2023/07/13 07:50:58;;;;;;;;;;;;;;;;;;4984140;28;19922;-62
2023/07/13 07:53:25;;;;;;;;;;;;;;;;;;4983010;28;19985;-62
2023/07/13 07:55:52;;;;;;;;;;;;;;;;;;4984234;28;19922;-62
2023/07/13 07:58:19;;;;;;;;;;;;;;;;;;4980800;28;19933;-62
2023/07/13 08:00:46;;;;;;;;;;;;;;;;;;4982837;28;19977;-62
2023/07/13 08:03:13;;;;;;;;;;;;;;;;;;4992885;28;19929;-63
2023/07/13 08:05:40;;;;;;;;;;;;;;;;;;4989868;28;19929;-63
2023/07/13 08:08:07;;;;;;;;;;;;;;;;;;4984455;28;20371;-63
2023/07/13 08:10:34;;;;;;;;;;;;;;;;;;4983709;28;19926;-63
2023/07/13 08:13:02;;;;;;;;;;;;;;;;;;4981927;28;19926;-63
2023/07/13 08:15:29;;;;;;;;;;;;;;;;;;4982569;28;20001;-63
2023/07/13 08:17:56;;;;;;;;;;;;;;;;;;4983811;28;19933;-62
2023/07/13 08:20:23;;;;;;;;;;;;;;;;;;4982227;28;20298;-62
2023/07/13 08:22:50;;;;;;;;;;;;;;;;;;4978399;28;19922;-62
2023/07/13 08:25:17;;;;;;;;;;;;;;;;;;4973006;28;20409;-63
2023/07/13 08:27:43;;;;;;;;;;;;;;;;;;4976232;28;20020;-62
2023/07/13 08:30:10;;;;;;;;;;;;;;;;;;4976868;28;19977;-63
2023/07/13 08:32:37;;;;;;;;;;;;;;;;;;4989773;28;19926;-62
2023/07/13 08:35:04;;;;;;;;;;;;;;;;;;4989284;28;19921;-62
2023/07/13 08:37:31;;;;;;;;;;;;;;;;;;4977552;28;19929;-62
2023/07/13 08:39:58;;;;;;;;;;;;;;;;;;4977019;28;19922;-62
2023/07/13 08:42:25;;;;;;;;;;;;;;;;;;4976810;28;20276;-62
2023/07/13 08:44:52;;;;;;;;;;;;;;;;;;4977108;28;19922;-63
2023/07/13 08:47:19;;;;;;;;;;;;;;;;;;4976604;28;19929;-63
2023/07/13 08:49:46;;;;;;;;;;;;;;;;;;4976757;28;19953;-62
2023/07/13 08:52:12;;;;;;;;;;;;;;;;;;4980257;28;20398;-62
2023/07/13 08:54:39;;;;;;;;;;;;;;;;;;4988346;28;20342;-62
2023/07/13 08:57:06;;;;;;;;;;;;;;;;;;4988932;28;19922;-66
2023/07/13 08:59:33;;;;;;;;;;;;;;;;;;4984999;28;19921;-62
2023/07/13 09:02:00;;;;;;;;;;;;;;;;;;4991530;28;19929;-62
2023/07/13 09:04:27;;;;;;;;;;;;;;;;;;4990790;28;19921;-63
2023/07/13 09:06:54;;;;;;;;;;;;;;;;;;4983916;28;19922;-63
2023/07/13 09:09:21;;;;;;;;;;;;;;;;;;4986276;28;20438;-63
2023/07/13 09:11:48;;;;;;;;;;;;;;;;;;4988488;28;19928;-63
2023/07/13 09:14:15;;;;;;;;;;;;;;;;;;4985591;28;19925;-62
2023/07/13 09:16:42;;;;;;;;;;;;;;;;;;4986429;28;19997;-62
2023/07/13 09:19:09;;;;;;;;;;;;;;;;;;4986434;28;20001;-62
2023/07/13 09:21:35;;;;;;;;;;;;;;;;;;4989706;28;19922;-62
2023/07/13 09:24:02;;;;;;;;;;;;;;;;;;4984413;28;19930;-63
2023/07/13 09:26:29;;;;;;;;;;;;;;;;;;4988183;28;20370;-63
2023/07/13 09:28:56;;;;;;;;;;;;;;;;;;4984015;28;20326;-63
2023/07/13 09:31:23;;;;;;;;;;;;;;;;;;4985826;28;19930;-62
2023/07/13 09:33:50;;;;;;;;;;;;;;;;;;4990280;28;19922;-62
2023/07/13 09:36:18;;;;;;;;;;;;;;;;;;4987077;28;19929;-63
2023/07/13 09:38:46;;;;;;;;;;;;;;;;;;4985823;28;19922;-62
2023/07/13 09:41:13;;;;;;;;;;;;;;;;;;4986501;28;20013;-63
2023/07/13 09:43:40;;;;;;;;;;;;;;;;;;4984147;28;20434;-63
2023/07/13 09:46:07;;;;;;;;;;;;;;;;;;4985079;28;20314;-63
2023/07/13 09:48:34;;;;;;;;;;;;;;;;;;4986564;28;19929;-63
2023/07/13 09:51:01;;;;;;;;;;;;;;;;;;4984533;28;19922;-62
2023/07/13 09:53:28;;;;;;;;;;;;;;;;;;4984478;28;19973;-63
2023/07/13 09:55:54;;;;;;;;;;;;;;;;;;4975474;28;19973;-63
2023/07/13 09:58:22;;;;;;;;;;;;;;;;;;4975797;28;19930;-62
2023/07/13 10:00:49;;;;;;;;;;;;;;;;;;4980121;28;20009;-62
2023/07/13 10:03:16;;;;;;;;;;;;;;;;;;4987239;28;19922;-62
2023/07/13 10:05:43;;;;;;;;;;;;;;;;;;4986013;28;19929;-63
2023/07/13 10:08:10;;;;;;;;;;;;;;;;;;4982581;28;19975;-62
2023/07/13 10:10:37;;;;;;;;;;;;;;;;;;4985190;28;19987;-62
2023/07/13 10:13:05;;;;;;;;;;;;;;;;;;4982950;28;20391;-62
2023/07/13 10:15:32;;;;;;;;;;;;;;;;;;4984774;28;19922;-61
2023/07/13 10:17:58;;;;;;;;;;;;;;;;;;4983434;28;19968;-61
2023/07/13 10:20:25;;;;;;;;;;;;;;;;;;4990316;28;20343;-61
2023/07/13 10:22:52;;;;;;;;;;;;;;;;;;4986604;28;20331;-61
2023/07/13 10:25:19;;;;;;;;;;;;;;;;;;4988536;28;19944;-61
2023/07/13 10:27:47;;;;;;;;;;;;;;;;;;4982147;28;19922;-62
2023/07/13 10:30:14;;;;;;;;;;;;;;;;;;4983741;28;20795;-62
2023/07/13 10:32:41;;;;;;;;;;;;;;;;;;4985669;28;19926;-62
2023/07/13 10:35:07;;;;;;;;;;;;;;;;;;4987217;28;19935;-62
2023/07/13 10:37:34;;;;;;;;;;;;;;;;;;4986586;28;20425;-64
2023/07/13 10:40:03;;;;;;;;;;;;;;;;;;4984451;28;19996;-61
2023/07/13 10:42:30;;;;;;;;;;;;;;;;;;4987945;28;19922;-61
2023/07/13 10:44:57;;;;;;;;;;;;;;;;;;4985793;28;19968;-62
2023/07/13 10:47:24;;;;;;;;;;;;;;;;;;4985702;28;19925;-62
2023/07/13 10:49:51;;;;;;;;;;;;;;;;;;4984488;28;19976;-62
2023/07/13 10:52:17;;;;;;;;;;;;;;;;;;4991803;28;19952;-63
2023/07/13 10:54:44;;;;;;;;;;;;;;;;;;4988579;28;19929;-64
2023/07/13 10:57:11;;;;;;;;;;;;;;;;;;4986533;28;19921;-64
2023/07/13 10:59:40;;;;;;;;;;;;;;;;;;4986288;28;20371;-64
2023/07/13 11:02:07;;;;;;;;;;;;;;;;;;4984803;28;19930;-64
2023/07/13 11:04:34;;;;;;;;;;;;;;;;;;4986733;28;19922;-65
2023/07/13 11:07:01;;;;;;;;;;;;;;;;;;4985194;28;19934;-64
2023/07/13 11:09:28;;;;;;;;;;;;;;;;;;4983002;28;19925;-64
2023/07/13 11:11:55;;;;;;;;;;;;;;;;;;4983718;28;19928;-64
2023/07/13 11:14:22;;;;;;;;;;;;;;;;;;4982363;28;20344;-64
2023/07/13 11:16:49;;;;;;;;;;;;;;;;;;4981846;28;19929;-61
2023/07/13 11:19:15;;;;;;;;;;;;;;;;;;4981364;28;19929;-68
2023/07/13 11:21:42;;;;;;;;;;;;;;;;;;4983127;28;19918;-62
2023/07/13 11:24:08;;;;;;;;;;;;;;;;;;4988979;28;19949;-64
2023/07/13 11:26:35;;;;;;;;;;;;;;;;;;4984634;28;19922;-61
2023/07/13 11:29:02;;;;;;;;;;;;;;;;;;4985140;28;19922;-61
2023/07/13 11:31:29;;;;;;;;;;;;;;;;;;4983841;28;20000;-61
2023/07/13 11:33:56;;;;;;;;;;;;;;;;;;4989052;28;19976;-62
2023/07/13 11:36:23;;;;;;;;;;;;;;;;;;4985762;28;20386;-62
2023/07/13 11:38:50;;;;;;;;;;;;;;;;;;4988102;28;19922;-62
2023/07/13 11:41:17;;;;;;;;;;;;;;;;;;4982480;28;19922;-64
2023/07/13 11:43:44;;;;;;;;;;;;;;;;;;4984770;28;19929;-63
2023/07/13 11:46:10;;;;;;;;;;;;;;;;;;4984869;28;19928;-62
2023/07/13 11:48:37;;;;;;;;;;;;;;;;;;4981423;28;19930;-62
2023/07/13 11:51:04;;;;;;;;;;;;;;;;;;4983182;28;19925;-63
2023/07/13 11:53:31;;;;;;;;;;;;;;;;;;4985135;28;20009;-62
2023/07/13 11:55:58;;;;;;;;;;;;;;;;;;4981383;28;20263;-63
2023/07/13 11:58:25;;;;;;;;;;;;;;;;;;4988768;28;20043;-64
2023/07/13 12:00:52;;;;;;;;;;;;;;;;;;4982039;28;19921;-62
2023/07/13 12:03:19;;;;;;;;;;;;;;;;;;4983358;28;19943;-67
2023/07/13 12:05:46;;;;;;;;;;;;;;;;;;4987233;28;19926;-63
2023/07/13 12:08:13;;;;;;;;;;;;;;;;;;4972666;28;20349;-62
2023/07/13 12:10:41;;;;;;;;;;;;;;;;;;4972599;28;19980;-62
2023/07/13 12:13:08;;;;;;;;;;;;;;;;;;4986989;28;19921;-65
2023/07/13 12:15:35;;;;;;;;;;;;;;;;;;4982781;28;20004;-63
2023/07/13 12:18:02;;;;;;;;;;;;;;;;;;4987603;28;19926;-67
2023/07/13 12:20:29;;;;;;;;;;;;;;;;;;4985374;28;20306;-62
2023/07/13 12:22:55;;;;;;;;;;;;;;;;;;4987805;28;19926;-62
2023/07/13 12:25:22;;;;;;;;;;;;;;;;;;4978947;28;19922;-62
2023/07/13 12:27:49;;;;;;;;;;;;;;;;;;4982249;28;19925;-62
2023/07/13 12:30:16;;;;;;;;;;;;;;;;;;4981586;28;20017;-62
2023/07/13 12:32:43;;;;;;;;;;;;;;;;;;4984258;28;19968;-64
2023/07/13 12:35:12;;;;;;;;;;;;;;;;;;4982979;28;20521;-63
2023/07/13 12:37:39;;;;;;;;;;;;;;;;;;4985920;28;19922;-66
2023/07/13 12:40:09;;;;;;;;;;;;;;;;;;4978617;28;19929;-63
2023/07/13 12:42:36;;;;;;;;;;;;;;;;;;4986954;28;19926;-64
2023/07/13 12:45:03;;;;;;;;;;;;;;;;;;4980478;28;19926;-62
2023/07/13 12:47:30;;;;;;;;;;;;;;;;;;4984300;28;19929;-61
2023/07/13 12:49:57;;;;;;;;;;;;;;;;;;4980853;28;20294;-61
2023/07/13 12:52:24;;;;;;;;;;;;;;;;;;4983171;28;19922;-60
2023/07/13 12:54:50;;;;;;;;;;;;;;;;;;4990313;28;19926;-61
2023/07/13 12:57:17;;;;;;;;;;;;;;;;;;4983337;28;19980;-63
2023/07/13 12:59:44;;;;;;;;;;;;;;;;;;4984282;28;19933;-63
2023/07/13 13:02:11;;;;;;;;;;;;;;;;;;4987146;28;19921;-63
2023/07/13 13:04:38;;;;;;;;;;;;;;;;;;4986522;28;19922;-63
2023/07/13 13:07:05;;;;;;;;;;;;;;;;;;4984980;28;19980;-63
2023/07/13 13:09:32;;;;;;;;;;;;;;;;;;4979268;28;20326;-63
2023/07/13 13:11:59;;;;;;;;;;;;;;;;;;4978842;28;19933;-63
2023/07/13 13:14:26;;;;;;;;;;;;;;;;;;4988604;28;19925;-63
2023/07/13 13:16:53;;;;;;;;;;;;;;;;;;4995411;28;19921;-63
2023/07/13 13:19:21;;;;;;;;;;;;;;;;;;4991633;28;19922;-63
2023/07/13 13:21:49;;;;;;;;;;;;;;;;;;4990034;28;19961;-63
2023/07/13 13:24:16;;;;;;;;;;;;;;;;;;4986967;28;19922;-63
2023/07/13 13:26:43;;;;;;;;;;;;;;;;;;4989703;28;19991;-63
2023/07/13 13:29:10;;;;;;;;;;;;;;;;;;4989488;28;19922;-62
2023/07/13 13:31:37;;;;;;;;;;;;;;;;;;4984526;28;19977;-64
2023/07/13 13:34:04;;;;;;;;;;;;;;;;;;4991129;28;20605;-65
2023/07/13 13:36:31;;;;;;;;;;;;;;;;;;4987166;28;19929;-65
2023/07/13 13:39:01;;;;;;;;;;;;;;;;;;4987258;28;19926;-64
2023/07/13 13:41:28;;;;;;;;;;;;;;;;;;4986022;28;19922;-65
2023/07/13 13:43:55;;;;;;;;;;;;;;;;;;4986165;28;19925;-64
2023/07/13 13:46:22;;;;;;;;;;;;;;;;;;4989538;28;19929;-64
2023/07/13 13:48:49;;;;;;;;;;;;;;;;;;4988119;28;19922;-63
2023/07/13 13:51:15;;;;;;;;;;;;;;;;;;4984249;28;19926;-63
2023/07/13 13:53:43;;;;;;;;;;;;;;;;;;4985993;28;20401;-65
2023/07/13 13:56:10;;;;;;;;;;;;;;;;;;4984422;28;19965;-64
2023/07/13 13:58:37;;;;;;;;;;;;;;;;;;4985959;28;19945;-68
2023/07/13 14:01:05;;;;;;;;;;;;;;;;;;4985806;28;19929;-63
2023/07/13 14:03:33;;;;;;;;;;;;;;;;;;4988449;28;19929;-62
2023/07/13 14:06:00;;;;;;;;;;;;;;;;;;4988877;28;20390;-63
2023/07/13 14:08:27;;;;;;;;;;;;;;;;;;4983360;28;19921;-64
2023/07/13 14:10:54;;;;;;;;;;;;;;;;;;4989663;28;19947;-63
2023/07/13 14:13:20;;;;;;;;;;;;;;;;;;4987828;28;19921;-63
2023/07/13 14:15:47;;;;;;;;;;;;;;;;;;4986618;28;20379;-62
2023/07/13 14:18:17;;;;;;;;;;;;;;;;;;4986448;28;20358;-64
2023/07/13 14:20:44;;;;;;;;;;;;;;;;;;4985081;28;20436;-63
2023/07/13 14:23:11;;;;;;;;;;;;;;;;;;4983882;28;19922;-62
2023/07/13 14:25:38;;;;;;;;;;;;;;;;;;4986125;28;19928;-63
2023/07/13 14:28:09;;;;;;;;;;;;;;;;;;4986018;28;19930;-63
2023/07/13 14:30:36;;;;;;;;;;;;;;;;;;4986878;28;20020;-62
2023/07/13 14:33:03;;;;;;;;;;;;;;;;;;4995123;28;19926;-64
2023/07/13 14:35:30;;;;;;;;;;;;;;;;;;4993920;28;19992;-63
2023/07/13 14:37:57;;;;;;;;;;;;;;;;;;4993078;28;20449;-63
2023/07/13 14:40:24;;;;;;;;;;;;;;;;;;4992850;28;19921;-63
2023/07/13 14:42:50;;;;;;;;;;;;;;;;;;4991537;28;19929;-63
2023/07/13 14:45:17;;;;;;;;;;;;;;;;;;4984392;28;19980;-63
2023/07/13 14:47:44;;;;;;;;;;;;;;;;;;4975886;28;19933;-63
2023/07/13 14:50:11;;;;;;;;;;;;;;;;;;4975173;28;19934;-63
2023/07/13 14:52:38;;;;;;;;;;;;;;;;;;4975578;28;19972;-63
2023/07/13 14:55:05;;;;;;;;;;;;;;;;;;4977007;28;20280;-63
2023/07/13 14:57:32;;;;;;;;;;;;;;;;;;4985344;28;19922;-62
2023/07/13 14:59:58;;;;;;;;;;;;;;;;;;4974141;28;19922;-63
2023/07/13 15:02:25;;;;;;;;;;;;;;;;;;4984703;28;19938;-64
2023/07/13 15:04:52;;;;;;;;;;;;;;;;;;4985647;28;19925;-64
2023/07/13 15:07:20;;;;;;;;;;;;;;;;;;4988348;28;19969;-64
2023/07/13 15:09:48;;;;;;;;;;;;;;;;;;4985054;28;19944;-63
2023/07/13 15:12:14;;;;;;;;;;;;;;;;;;4983653;28;19928;-64
2023/07/13 15:14:42;;;;;;;;;;;;;;;;;;4983432;28;20430;-64
2023/07/13 15:17:08;;;;;;;;;;;;;;;;;;4987702;28;20339;-63
2023/07/13 15:19:36;;;;;;;;;;;;;;;;;;4987228;28;20334;-63
2023/07/13 15:22:03;;;;;;;;;;;;;;;;;;4987187;28;20025;-62
2023/07/13 15:24:30;;;;;;;;;;;;;;;;;;4981449;28;20294;-63
2023/07/13 15:26:57;;;;;;;;;;;;;;;;;;4987447;28;19941;-63
2023/07/13 15:29:24;;;;;;;;;;;;;;;;;;4984501;28;19925;-63
2023/07/13 15:31:50;;;;;;;;;;;;;;;;;;4983482;28;20021;-63
2023/07/13 15:34:17;;;;;;;;;;;;;;;;;;4978919;28;20323;-63
2023/07/13 15:36:44;;;;;;;;;;;;;;;;;;4982678;28;19968;-63
2023/07/13 15:39:11;;;;;;;;;;;;;;;;;;4981883;28;20383;-63
2023/07/13 15:41:39;;;;;;;;;;;;;;;;;;4981913;28;20355;-62
2023/07/13 15:44:05;;;;;;;;;;;;;;;;;;4987683;28;19921;-63
2023/07/13 15:46:32;;;;;;;;;;;;;;;;;;4986610;28;19970;-63
2023/07/13 15:48:59;;;;;;;;;;;;;;;;;;4983437;28;19982;-63
2023/07/13 15:51:26;;;;;;;;;;;;;;;;;;4984080;28;19921;-63
2023/07/13 15:53:54;;;;;;;;;;;;;;;;;;4981782;28;19922;-62
2023/07/13 15:56:21;;;;;;;;;;;;;;;;;;4985675;28;19968;-63
2023/07/13 15:58:48;;;;;;;;;;;;;;;;;;4982243;28;19928;-63
2023/07/13 16:01:15;;;;;;;;;;;;;;;;;;4985494;28;19922;-63
2023/07/13 16:03:42;;;;;;;;;;;;;;;;;;4981935;28;20358;-63
2023/07/13 16:06:09;;;;;;;;;;;;;;;;;;4982576;28;20025;-63
2023/07/13 16:08:39;;;;;;;;;;;;;;;;;;4981961;28;20443;-63
2023/07/13 16:11:06;;;;;;;;;;;;;;;;;;4981836;28;20335;-63
2023/07/13 16:13:34;;;;;;;;;;;;;;;;;;4989119;28;19922;-63
2023/07/13 16:16:00;;;;;;;;;;;;;;;;;;4985587;28;19949;-63
2023/07/13 16:18:27;;;;;;;;;;;;;;;;;;4984417;28;19971;-63
2023/07/13 16:20:56;;;;;;;;;;;;;;;;;;4987554;28;19922;-63
2023/07/13 16:23:23;;;;;;;;;;;;;;;;;;4972948;28;20450;-63
2023/07/13 16:25:51;;;;;;;;;;;;;;;;;;4973241;28;19926;-63
2023/07/13 16:28:18;;;;;;;;;;;;;;;;;;4986965;28;19922;-63
2023/07/13 16:30:45;;;;;;;;;;;;;;;;;;4983072;28;19926;-63
2023/07/13 16:33:12;;;;;;;;;;;;;;;;;;4981367;28;19969;-63
2023/07/13 16:35:41;;;;;;;;;;;;;;;;;;4982204;28;19922;-63
2023/07/13 16:38:08;;;;;;;;;;;;;;;;;;4984050;28;19922;-63
2023/07/13 16:40:35;;;;;;;;;;;;;;;;;;4981575;28;20363;-63
2023/07/13 16:43:04;;;;;;;;;;;;;;;;;;4975735;28;20020;-64